createdAt,value
2019-01-15T00:02:27.887Z,98828.27
2019-01-15T00:04:56.655Z,98833.39
2019-01-15T00:07:25.013Z,98832.55
2019-01-15T00:09:53.014Z,98833.89
2019-01-15T00:12:21.436Z,98839.98
2019-01-15T00:14:50.039Z,98840.42
2019-01-15T00:17:18.621Z,98843.89
2019-01-15T00:19:47.078Z,98842.72
2019-01-15T00:22:15.686Z,98845.25
2019-01-15T00:24:43.816Z,98843.14
2019-01-15T00:27:11.821Z,98847.39
2019-01-15T00:29:40.332Z,98851.80
2019-01-15T00:32:08.378Z,98856.65
2019-01-15T00:34:36.387Z,98860.50
2019-01-15T00:37:04.739Z,98857.48
2019-01-15T00:39:33.211Z,98854.86
2019-01-15T00:42:01.790Z,98865.30
2019-01-15T00:44:29.860Z,98857.50
2019-01-15T00:46:57.940Z,98855.73
2019-01-15T00:49:26.220Z,98863.20
2019-01-15T00:51:54.308Z,98863.20
2019-01-15T00:54:22.788Z,98864.86
2019-01-15T00:56:51.467Z,98865.19
2019-01-15T00:59:19.622Z,98866.16
2019-01-15T01:01:47.778Z,98866.25
2019-01-15T01:04:16.059Z,98872.70
2019-01-15T01:06:44.470Z,98868.39
2019-01-15T01:09:13.064Z,98867.10
2019-01-15T01:11:41.206Z,98873.14
2019-01-15T01:14:09.726Z,98878.39
2019-01-15T01:16:38.058Z,98878.31
2019-01-15T01:19:06.202Z,98876.72
2019-01-15T01:21:34.781Z,98884.01
2019-01-15T01:24:02.871Z,98885.84
2019-01-15T01:26:31.298Z,98890.16
2019-01-15T01:28:59.488Z,98894.56
2019-01-15T01:31:27.571Z,98901.55
2019-01-15T01:33:55.743Z,98904.55
2019-01-15T01:36:23.991Z,98904.46
2019-01-15T01:38:52.426Z,98914.60
2019-01-15T01:41:20.691Z,98916.61
2019-01-15T01:43:49.009Z,98921.48
2019-01-15T01:46:17.490Z,98924.97
2019-01-15T01:48:45.691Z,98936.86
2019-01-15T01:51:14.450Z,98933.20
2019-01-15T01:53:43.412Z,98929.31
2019-01-15T01:56:12.278Z,98933.53
2019-01-15T01:58:40.568Z,98935.05
2019-01-15T02:01:09.463Z,98945.86
2019-01-15T02:03:37.675Z,98940.58
2019-01-15T02:06:06.206Z,98944.72
2019-01-15T02:08:34.390Z,98940.12
2019-01-15T02:11:02.469Z,98947.21
2019-01-15T02:13:31.192Z,98947.19
2019-01-15T02:15:59.466Z,98943.14
2019-01-15T02:18:27.831Z,98945.05
2019-01-15T02:20:56.028Z,98948.50
2019-01-15T02:23:24.882Z,98949.78
2019-01-15T02:25:53.367Z,98949.23
2019-01-15T02:28:21.800Z,98938.59
2019-01-15T02:30:50.015Z,98948.95
2019-01-15T02:33:18.500Z,98948.95
2019-01-15T02:35:46.782Z,98946.98
2019-01-15T02:39:23.259Z,98943.64
2019-01-15T02:41:51.925Z,98945.67
2019-01-15T02:44:20.566Z,98949.55
2019-01-15T02:46:48.781Z,98945.77
2019-01-15T02:49:17.117Z,98945.77
2019-01-15T02:51:45.312Z,98943.52
2019-01-15T02:54:13.551Z,98941.83
2019-01-15T02:56:41.832Z,98945.81
2019-01-15T02:59:10.030Z,98937.82
2019-01-15T03:01:38.287Z,98948.81
2019-01-15T03:04:06.820Z,98951.80
2019-01-15T03:06:35.391Z,98954.89
2019-01-15T03:09:05.128Z,98954.89
2019-01-15T03:11:33.583Z,98953.20
2019-01-15T03:14:02.086Z,98962.76
2019-01-15T03:16:31.273Z,98958.30
2019-01-15T03:19:00.198Z,98948.52
2019-01-15T03:21:28.732Z,98954.50
2019-01-15T03:23:57.528Z,98957.13
2019-01-15T03:26:26.831Z,98957.13
2019-01-15T03:28:55.032Z,98954.91
2019-01-15T03:31:23.891Z,98955.34
2019-01-15T03:33:52.584Z,98954.02
2019-01-15T03:36:20.781Z,98949.28
2019-01-15T03:38:49.012Z,98955.02
2019-01-15T03:41:17.214Z,98954.43
2019-01-15T03:43:45.670Z,98961.04
2019-01-15T03:46:13.825Z,98963.19
2019-01-15T03:50:22.524Z,98955.06
2019-01-15T03:52:51.094Z,98958.11
2019-01-15T03:55:19.764Z,98955.90
2019-01-15T03:57:48.173Z,98959.73
2019-01-15T04:00:17.952Z,98966.72
2019-01-15T04:02:46.448Z,98957.27
2019-01-15T04:05:16.362Z,98954.25
2019-01-15T04:07:45.308Z,98962.50
2019-01-15T04:11:06.053Z,98954.34
2019-01-15T04:13:34.655Z,98956.47
2019-01-15T04:16:02.974Z,98960.48
2019-01-15T04:18:31.300Z,98961.34
2019-01-15T04:20:59.977Z,98953.45
2019-01-15T04:23:28.222Z,98957.38
2019-01-15T04:25:56.378Z,98958.63
2019-01-15T04:28:24.677Z,98953.02
2019-01-15T04:30:52.919Z,98947.25
2019-01-15T04:33:21.596Z,98946.42
2019-01-15T04:35:50.133Z,98951.69
2019-01-15T04:38:19.033Z,98949.01
2019-01-15T04:40:47.936Z,98951.23
2019-01-15T04:43:19.796Z,98949.94
2019-01-15T04:45:46.461Z,98945.53
2019-01-15T04:48:14.671Z,98949.42
2019-01-15T04:50:42.897Z,98949.89
2019-01-15T04:53:11.131Z,98941.53
2019-01-15T04:55:40.130Z,98937.20
2019-01-15T04:58:08.659Z,98929.83
2019-01-15T05:02:44.450Z,98925.45
2019-01-15T05:05:13.834Z,98915.27
2019-01-15T05:07:42.313Z,98923.97
2019-01-15T05:10:11.561Z,98941.85
2019-01-15T05:12:39.831Z,98941.85
2019-01-15T05:15:09.367Z,98944.98
2019-01-15T05:17:38.490Z,98957.59
2019-01-15T05:20:07.560Z,98953.62
2019-01-15T05:22:36.556Z,98962.30
2019-01-15T05:25:06.168Z,98965.06
2019-01-15T05:27:34.494Z,98967.19
2019-01-15T05:30:02.839Z,98967.19
2019-01-15T05:32:31.049Z,98968.99
2019-01-15T05:34:59.561Z,98959.38
2019-01-15T05:37:27.854Z,98958.53
2019-01-15T05:39:56.098Z,98956.36
2019-01-15T05:42:24.700Z,98957.57
2019-01-15T05:44:54.920Z,98955.48
2019-01-15T05:47:25.201Z,98955.02
2019-01-15T05:49:53.564Z,98962.03
2019-01-15T05:52:22.326Z,98963.64
2019-01-15T05:54:50.700Z,98967.20
2019-01-15T05:57:19.245Z,98965.44
2019-01-15T05:59:47.838Z,98972.41
2019-01-15T06:02:16.052Z,98971.00
2019-01-15T06:04:44.233Z,98975.94
2019-01-15T06:07:12.730Z,98972.42
2019-01-15T06:09:40.914Z,98975.52
2019-01-15T06:12:09.450Z,98978.61
2019-01-15T06:14:37.666Z,98974.78
2019-01-15T06:17:06.303Z,98980.89
2019-01-15T06:19:34.780Z,98982.34
2019-01-15T06:22:03.115Z,98979.17
2019-01-15T06:24:31.297Z,98978.00
2019-01-15T06:26:59.637Z,98976.67
2019-01-15T06:29:28.944Z,98978.73
2019-01-15T06:31:57.363Z,98976.59
2019-01-15T06:34:25.536Z,98971.73
2019-01-15T06:36:53.787Z,98981.38
2019-01-15T06:40:37.507Z,98979.69
2019-01-15T06:43:05.761Z,98987.05
2019-01-15T06:45:34.355Z,98978.80
2019-01-15T06:48:02.788Z,98983.97
2019-01-15T06:50:31.140Z,98984.88
2019-01-15T06:52:59.459Z,98985.34
2019-01-15T06:55:27.968Z,98988.41
2019-01-15T06:57:56.661Z,98982.32
2019-01-15T07:00:26.799Z,98982.67
2019-01-15T07:02:55.476Z,98980.56
2019-01-15T07:05:23.792Z,98980.11
2019-01-15T07:07:52.498Z,98974.25
2019-01-15T07:10:31.562Z,98970.77
2019-01-15T07:13:00.026Z,98973.87
2019-01-15T07:15:28.235Z,98970.80
2019-01-15T07:17:56.765Z,98967.38
2019-01-15T07:20:25.128Z,98972.02
2019-01-15T07:22:53.540Z,98973.05
2019-01-15T07:25:21.889Z,98979.13
2019-01-15T07:27:50.116Z,98978.81
2019-01-15T07:30:23.184Z,98971.30
2019-01-15T07:32:51.766Z,98971.30
2019-01-15T07:35:20.360Z,98974.71
2019-01-15T07:37:48.581Z,98982.64
2019-01-15T07:40:17.985Z,98988.78
2019-01-15T07:42:46.622Z,98984.96
2019-01-15T07:47:57.718Z,98981.94
2019-01-15T07:50:26.258Z,98986.20
2019-01-15T07:52:54.477Z,98988.02
2019-01-15T07:58:01.062Z,98971.37
2019-01-15T08:00:29.264Z,98965.31
2019-01-15T08:02:57.557Z,98974.06
2019-01-15T08:05:27.868Z,98974.91
2019-01-15T08:07:56.304Z,98982.59
2019-01-15T08:10:24.849Z,98978.88
2019-01-15T08:12:53.022Z,98983.09
2019-01-15T08:15:21.935Z,98987.18
2019-01-15T08:17:50.536Z,98996.78
2019-01-15T08:20:19.152Z,98993.30
2019-01-15T08:22:47.434Z,99006.80
2019-01-15T08:25:16.462Z,99005.10
2019-01-15T08:27:44.793Z,98999.10
2019-01-15T08:30:14.649Z,98997.69
2019-01-15T08:32:43.226Z,99000.03
2019-01-15T08:35:11.604Z,98993.32
2019-01-15T08:37:39.888Z,98995.14
2019-01-15T08:40:08.858Z,98989.05
2019-01-15T08:42:37.015Z,98992.53
2019-01-15T08:45:06.023Z,98996.36
2019-01-15T08:47:36.105Z,98993.85
2019-01-15T08:50:05.864Z,98999.59
2019-01-15T08:52:34.202Z,99009.73
2019-01-15T08:55:02.798Z,99012.29
2019-01-15T08:57:31.018Z,99008.72
2019-01-15T08:59:59.703Z,99006.64
2019-01-15T09:02:28.231Z,99008.38
2019-01-15T09:04:56.779Z,98994.86
2019-01-15T09:07:25.702Z,98993.98
2019-01-15T09:09:53.901Z,99000.59
2019-01-15T09:12:22.360Z,99002.39
2019-01-15T09:14:50.755Z,99003.76
2019-01-15T09:17:19.132Z,99003.76
2019-01-15T09:19:47.530Z,99006.46
2019-01-15T09:22:15.881Z,99007.41
2019-01-15T09:26:11.636Z,99007.45
2019-01-15T09:28:40.258Z,99007.82
2019-01-15T09:31:08.627Z,99006.56
2019-01-15T09:33:36.866Z,99003.92
2019-01-15T09:36:05.061Z,99000.91
2019-01-15T09:38:33.420Z,98996.98
2019-01-15T09:41:01.442Z,99007.91
2019-01-15T09:43:29.802Z,99007.92
2019-01-15T09:45:58.293Z,99008.76
2019-01-15T09:48:29.722Z,99005.75
2019-01-15T09:50:57.792Z,98998.32
2019-01-15T09:53:25.944Z,98999.19
2019-01-15T09:55:54.667Z,98994.81
2019-01-15T09:58:25.549Z,98998.76
2019-01-15T10:00:53.736Z,99001.77
2019-01-15T10:03:22.022Z,99006.58
2019-01-15T10:05:50.097Z,98999.62
2019-01-15T10:08:18.339Z,99004.86
2019-01-15T10:10:46.657Z,99004.81
2019-01-15T10:13:14.865Z,98999.51
2019-01-15T10:15:43.346Z,98999.08
2019-01-15T10:18:11.450Z,98997.36
2019-01-15T10:20:39.656Z,98997.80
2019-01-15T10:23:07.985Z,98991.13
2019-01-15T10:25:36.452Z,98984.59
2019-01-15T10:28:04.655Z,98980.22
2019-01-15T10:30:42.132Z,98978.45
2019-01-15T10:33:22.517Z,98971.80
2019-01-15T10:35:55.119Z,98974.58
2019-01-15T10:38:24.403Z,98958.73
2019-01-15T10:40:53.398Z,98960.50
2019-01-15T10:43:21.536Z,98945.48
2019-01-15T10:45:50.479Z,98949.77
2019-01-15T10:48:19.004Z,98942.67
2019-01-15T10:50:47.747Z,98935.09
2019-01-15T10:53:16.105Z,98936.73
2019-01-15T10:55:44.180Z,98932.17
2019-01-15T10:58:17.490Z,98920.22
2019-01-15T11:00:42.670Z,98930.03
2019-01-15T11:03:11.103Z,98920.75
2019-01-15T11:05:39.584Z,98916.42
2019-01-15T11:08:08.055Z,98911.84
2019-01-15T11:10:36.157Z,98904.52
2019-01-15T11:13:04.259Z,98895.48
2019-01-15T11:15:32.682Z,98907.21
2019-01-15T11:18:00.926Z,98904.14
2019-01-15T11:20:28.954Z,98899.73
2019-01-15T11:22:57.308Z,98893.30
2019-01-15T11:25:25.342Z,98881.21
2019-01-15T11:27:53.850Z,98886.38
2019-01-15T11:30:22.250Z,98875.81
2019-01-15T11:32:50.730Z,98874.73
2019-01-15T11:35:19.212Z,98878.77
2019-01-15T11:37:47.684Z,98874.88
2019-01-15T11:40:16.495Z,98881.72
2019-01-15T11:42:45.263Z,98894.03
2019-01-15T11:45:13.654Z,98891.19
2019-01-15T11:47:42.091Z,98884.70
2019-01-15T11:50:12.105Z,98876.58
2019-01-15T11:52:40.550Z,98874.40
2019-01-15T11:55:08.960Z,98870.34
2019-01-15T11:57:37.209Z,98869.14
2019-01-15T12:00:08.490Z,98863.25
2019-01-15T12:02:43.372Z,98863.38
2019-01-15T12:05:37.033Z,98856.13
2019-01-15T12:08:24.411Z,98854.95
2019-01-15T12:11:10.702Z,98855.88
2019-01-15T12:13:53.508Z,98850.34
2019-01-15T12:16:49.868Z,98849.23
2019-01-15T12:19:31.479Z,98840.52
2019-01-15T12:22:27.595Z,98838.82
2019-01-15T12:25:11.495Z,98844.95
2019-01-15T12:28:06.546Z,98830.03
2019-01-15T12:30:56.798Z,98834.39
2019-01-15T12:33:42.723Z,98828.09
2019-01-15T12:36:36.857Z,98828.95
2019-01-15T12:39:29.514Z,98840.52
2019-01-15T12:42:32.563Z,98835.45
2019-01-15T12:45:23.603Z,98835.45
2019-01-15T12:48:12.643Z,98829.36
2019-01-15T12:51:16.297Z,98830.00
2019-01-15T12:54:19.642Z,98823.11
2019-01-15T12:57:05.526Z,98814.73
2019-01-15T12:59:51.317Z,98813.81
2019-01-15T13:02:37.869Z,98819.02
2019-01-15T13:05:43.799Z,98827.78
2019-01-15T13:08:29.815Z,98820.84
2019-01-15T13:11:16.966Z,98827.81
2019-01-15T13:14:16.319Z,98831.09
2019-01-15T13:17:02.315Z,98837.35
2019-01-15T13:19:48.031Z,98837.80
2019-01-15T13:22:34.071Z,98849.30
2019-01-15T13:25:20.480Z,98846.67
2019-01-15T13:28:13.703Z,98845.31
2019-01-15T13:30:59.511Z,98835.51
2019-01-15T13:33:56.238Z,98836.95
2019-01-15T13:36:49.626Z,98837.30
2019-01-15T13:39:37.273Z,98831.98
2019-01-15T13:42:23.574Z,98838.55
2019-01-15T13:45:09.500Z,98835.56
2019-01-15T13:47:56.372Z,98838.28
2019-01-15T13:50:42.708Z,98838.77
2019-01-15T13:53:32.927Z,98843.63
2019-01-15T13:56:20.388Z,98837.58
2019-01-15T13:59:06.240Z,98832.73
2019-01-15T14:02:05.990Z,98843.22
2019-01-15T14:04:42.440Z,98841.86
2019-01-15T14:07:28.585Z,98847.54
2019-01-15T14:10:16.188Z,98848.92
2019-01-15T14:13:15.884Z,98851.48
2019-01-15T14:16:00.644Z,98848.80
2019-01-15T14:18:54.934Z,98849.44
2019-01-15T14:21:45.543Z,98858.63
2019-01-15T14:24:24.132Z,98848.98
2019-01-15T14:27:17.428Z,98851.93
2019-01-15T14:30:10.441Z,98846.31
2019-01-15T14:32:58.076Z,98849.81
2019-01-15T14:35:46.220Z,98850.66
2019-01-15T14:38:32.651Z,98849.30
2019-01-15T14:41:18.657Z,98850.68
2019-01-15T14:44:24.103Z,98847.98
2019-01-15T14:47:23.360Z,98848.98
2019-01-15T14:50:07.747Z,98856.06
2019-01-15T14:53:05.000Z,98846.86
2019-01-15T14:55:55.609Z,98843.73
2019-01-15T14:58:43.272Z,98846.03
2019-01-15T15:01:33.874Z,98841.65
2019-01-15T15:04:20.978Z,98838.50
2019-01-15T15:07:06.028Z,98831.95
2019-01-15T15:10:09.120Z,98832.83
2019-01-15T15:12:59.419Z,98831.42
2019-01-15T15:15:52.162Z,98835.03
2019-01-15T15:18:38.433Z,98833.30
2019-01-15T15:21:28.710Z,98838.61
2019-01-15T15:24:21.968Z,98828.92
2019-01-15T15:26:59.814Z,98833.31
2019-01-15T15:29:45.642Z,98832.40
2019-01-15T15:32:36.615Z,98824.06
2019-01-15T15:35:33.823Z,98831.52
2019-01-15T15:38:24.066Z,98826.27
2019-01-15T15:41:17.317Z,98826.68
2019-01-15T15:44:04.852Z,98827.57
2019-01-15T15:46:50.795Z,98824.12
2019-01-15T15:50:17.530Z,98825.41
2019-01-15T15:53:17.413Z,98835.11
2019-01-15T15:56:14.149Z,98838.16
2019-01-15T15:59:01.875Z,98827.67
2019-01-15T16:01:48.118Z,98825.45
2019-01-15T16:04:26.712Z,98833.78
2019-01-15T16:07:12.714Z,98828.99
2019-01-15T16:09:59.030Z,98827.22
2019-01-15T16:12:54.737Z,98824.60
2019-01-15T16:15:51.442Z,98825.48
2019-01-15T16:18:38.875Z,98818.05
2019-01-15T16:21:25.367Z,98821.05
2019-01-15T16:24:13.247Z,98817.13
2019-01-15T16:26:53.962Z,98816.24
2019-01-15T16:29:56.506Z,98816.65
2019-01-15T16:33:02.030Z,98814.97
2019-01-15T16:35:55.126Z,98816.20
2019-01-15T16:38:46.289Z,98821.88
2019-01-15T16:41:34.093Z,98822.83
2019-01-15T16:44:20.611Z,98819.25
2019-01-15T16:46:59.849Z,98816.20
2019-01-15T16:49:50.751Z,98810.56
2019-01-15T16:52:37.582Z,98816.30
2019-01-15T16:55:23.971Z,98817.47
2019-01-15T16:58:10.595Z,98811.86
2019-01-15T17:00:51.350Z,98813.22
2019-01-15T17:03:51.173Z,98810.00
2019-01-15T17:06:47.465Z,98809.94
2019-01-15T17:09:32.897Z,98809.59
2019-01-15T17:12:28.691Z,98805.23
2019-01-15T17:15:15.847Z,98811.38
2019-01-15T17:18:02.830Z,98807.52
2019-01-15T17:20:37.949Z,98806.16
2019-01-15T17:23:20.386Z,98801.34
2019-01-15T17:26:09.014Z,98801.38
2019-01-15T17:29:05.058Z,98797.91
2019-01-15T17:31:59.621Z,98798.73
2019-01-15T17:34:40.381Z,98799.66
2019-01-15T17:37:27.402Z,98802.61
2019-01-15T17:40:20.435Z,98801.88
2019-01-15T17:43:06.696Z,98799.64
2019-01-15T17:46:05.723Z,98804.86
2019-01-15T17:48:55.980Z,98805.21
2019-01-15T17:51:46.193Z,98805.67
2019-01-15T17:54:45.908Z,98800.51
2019-01-15T17:57:33.307Z,98794.84
2019-01-15T18:00:27.095Z,98793.52
2019-01-15T18:03:23.334Z,98795.28
2019-01-15T18:06:23.062Z,98794.86
2019-01-15T18:09:25.432Z,98798.84
2019-01-15T18:12:15.314Z,98813.78
2019-01-15T18:15:15.199Z,98813.38
2019-01-15T18:18:08.680Z,98812.53
2019-01-15T18:20:54.801Z,98819.05
2019-01-15T18:23:45.034Z,98813.73
2019-01-15T18:26:31.082Z,98811.17
2019-01-15T18:29:27.332Z,98810.27
2019-01-15T18:32:14.811Z,98808.12
2019-01-15T18:35:01.322Z,98807.25
2019-01-15T18:37:43.414Z,98807.72
2019-01-15T18:40:42.959Z,98814.61
2019-01-15T18:46:40.420Z,98806.31
2019-01-15T18:49:26.739Z,98799.30
2019-01-15T18:52:14.097Z,98803.23
2019-01-15T18:55:16.686Z,98800.64
2019-01-15T18:58:03.929Z,98801.56
2019-01-15T19:00:54.024Z,98798.51
